SouthEast Lincoln: Weather Underground Data


Davis Vantage Pro Historical Data
 
Daily Summary for January 16, 2018 Units:  English    Metric   Both
« Previous Day
Next Day »
Daily Weekly Monthly Yearly Custom
  Current: High: Low: Average:
Temperature: 12.6 °F 18.4 °F -0.9 °F 6.6 °F
Dew Point: 5.0 °F 7.9 °F -7.2 °F -1.3 °F
Humidity: 71% 78% 61% 70%
Wind Speed: 0.0mph 12.0mph 0.0mph 2.1mph
Wind Gust: 0.0mph 12.0mph - -
Wind:Calm - - West
Pressure: 30.83 in 30.95 in 30.83 in -
Precipitation: 0.00 in      
Historical Graphs
 
 
Tabular Data for January 16, 2018
Time Temperature Dew Point Pressure Wind Wind Speed Wind Gust Humidity Rainfall Rate (Hourly) solar
00:01 0.4 °F -7.1 °F 30.87 in Calm   4.0 mph 70% 0.00 in 0.00 W/m2
00:38 0.2 °F -7.2 °F 30.87 in NW 7.0 mph 10.0 mph 70% 0.00 in 0.00 W/m2
00:44 0.2 °F -7.2 °F 30.86 in Calm     70% 0.00 in 0.00 W/m2
00:54 0.4 °F -7.1 °F 30.87 in NNW 1.0 mph 1.0 mph 70% 0.00 in 0.00 W/m2
01:05 0.4 °F -6.8 °F 30.86 in Calm   4.0 mph 71% 0.00 in 0.00 W/m2
01:12 0.3 °F -6.9 °F 30.87 in NNW 8.0 mph 10.0 mph 71% 0.00 in 0.00 W/m2
01:19 0.3 °F -6.9 °F 30.86 in Calm   4.0 mph 71% 0.00 in 0.00 W/m2
01:31 0.2 °F -6.7 °F 30.87 in WNW 4.0 mph 4.0 mph 72% 0.00 in 0.00 W/m2
01:37 0.2 °F -6.7 °F 30.87 in NNW 5.0 mph 11.0 mph 72% 0.00 in 0.00 W/m2
01:48 0.1 °F -6.8 °F 30.87 in NNW 1.0 mph 1.0 mph 72% 0.00 in 0.00 W/m2
01:54 0.1 °F -6.9 °F 30.87 in Calm     72% 0.00 in 0.00 W/m2
02:01 0.1 °F -6.9 °F 30.87 in Calm     72% 0.00 in 0.00 W/m2
02:20 -0.1 °F -6.7 °F 30.87 in Calm     73% 0.00 in 0.00 W/m2
02:30 -0.1 °F -6.6 °F 30.87 in West 1.0 mph 2.0 mph 73% 0.00 in 0.00 W/m2
02:47 0.2 °F -6.4 °F 30.88 in WNW 2.0 mph 6.0 mph 73% 0.00 in 0.00 W/m2
02:56 0.3 °F -6.0 °F 30.88 in Calm     74% 0.00 in 0.00 W/m2
03:07 0.5 °F -5.8 °F 30.89 in Calm     74% 0.00 in 0.00 W/m2
03:12 0.6 °F -5.7 °F 30.89 in NW 4.0 mph 8.0 mph 74% 0.00 in 0.00 W/m2
03:19 0.5 °F -5.8 °F 30.89 in North 2.0 mph 4.0 mph 74% 0.00 in 0.00 W/m2
03:25 0.5 °F -5.8 °F 30.89 in NNW 2.0 mph 7.0 mph 74% 0.00 in 0.00 W/m2
03:35 0.4 °F -6.2 °F 30.89 in NW 2.0 mph 2.0 mph 73% 0.00 in 0.00 W/m2
03:44 0.3 °F -6.6 °F 30.89 in Calm   6.0 mph 72% 0.00 in 0.00 W/m2
04:01 0.1 °F -6.8 °F 30.89 in Calm     72% 0.00 in 0.00 W/m2
04:12 0.1 °F -6.8 °F 30.89 in Calm     72% 0.00 in 0.00 W/m2
04:23 0.1 °F -6.5 °F 30.90 in NNW 3.0 mph 5.0 mph 73% 0.00 in 0.00 W/m2
04:28 0.1 °F -6.5 °F 30.90 in Calm   3.0 mph 73% 0.00 in 0.00 W/m2
04:36 0.1 °F -6.5 °F 30.90 in Calm   8.0 mph 73% 0.00 in 0.00 W/m2
04:50 0.1 °F -6.5 °F 30.90 in WNW 4.0 mph 6.0 mph 73% 0.00 in 0.00 W/m2
04:57 0.1 °F -6.5 °F 30.90 in Calm     73% 0.00 in 0.00 W/m2
05:06 0.2 °F -6.1 °F 30.91 in Calm   5.0 mph 74% 0.00 in 0.00 W/m2
05:13 0.4 °F -5.6 °F 30.91 in NW 1.0 mph 7.0 mph 75% 0.00 in 0.00 W/m2
05:39 0.2 °F -6.4 °F 30.90 in Calm     73% 0.00 in 0.00 W/m2
05:46 0.2 °F -6.4 °F 30.91 in NW 2.0 mph 7.0 mph 73% 0.00 in 0.00 W/m2
06:00 0.1 °F -6.6 °F 30.91 in WNW 7.0 mph 7.0 mph 73% 0.00 in 0.00 W/m2
06:11 -0.3 °F -6.9 °F 30.91 in Calm   4.0 mph 73% 0.00 in 0.00 W/m2
06:17 -0.4 °F -7.0 °F 30.91 in WNW 12.0 mph 12.0 mph 73% 0.00 in 0.00 W/m2
06:34 -0.8 °F -7.1 °F 30.91 in Calm   9.0 mph 74% 0.00 in 0.00 W/m2
06:40 -0.8 °F -7.1 °F 30.91 in Calm   1.0 mph 74% 0.00 in 0.00 W/m2
06:58 -0.9 °F -7.2 °F 30.92 in NNW 4.0 mph 6.0 mph 74% 0.00 in 0.00 W/m2
07:05 -0.9 °F -7.2 °F 30.92 in Calm     74% 0.00 in 0.00 W/m2
07:12 -0.9 °F -6.9 °F 30.92 in Calm   3.0 mph 75% 0.00 in 0.00 W/m2
07:35 -0.9 °F -6.6 °F 30.92 in Calm     76% 0.00 in 0.00 W/m2
07:41 -0.9 °F -6.6 °F 30.92 in Calm     76% 0.00 in 0.00 W/m2
07:48 -0.8 °F -6.5 °F 30.92 in Calm     76% 0.00 in 5.00 W/m2
07:54 -0.8 °F -6.3 °F 30.92 in Calm     77% 0.00 in 7.00 W/m2
08:02 -0.7 °F -6.2 °F 30.93 in Calm     77% 0.00 in 12.00 W/m2
08:07 -0.6 °F -6.1 °F 30.93 in Calm     77% 0.00 in 16.00 W/m2
08:12 -0.4 °F -5.9 °F 30.93 in Calm     77% 0.00 in 19.00 W/m2
08:17 -0.1 °F -5.3 °F 30.93 in West 5.0 mph 8.0 mph 78% 0.00 in 25.00 W/m2
08:34 0.6 °F -4.9 °F 30.93 in Calm     77% 0.00 in 62.00 W/m2
08:40 0.8 °F -4.7 °F 30.93 in Calm   3.0 mph 77% 0.00 in 60.00 W/m2
08:46 1.0 °F -4.5 °F 30.93 in NW 2.0 mph 2.0 mph 77% 0.00 in 62.00 W/m2
08:54 1.3 °F -4.2 °F 30.93 in North 1.0 mph 4.0 mph 77% 0.00 in 72.00 W/m2
09:07 1.6 °F -4.2 °F 30.94 in NW 2.0 mph 5.0 mph 76% 0.00 in 79.00 W/m2
09:43 2.5 °F -3.6 °F 30.95 in WNW 7.0 mph 8.0 mph 75% 0.00 in 153.00 W/m2
09:49 2.5 °F -3.9 °F 30.95 in Calm     74% 0.00 in 151.00 W/m2
10:00 2.7 °F -3.7 °F 30.95 in NW 8.0 mph 9.0 mph 74% 0.00 in 309.00 W/m2
10:06 2.9 °F -3.5 °F 30.95 in WNW 5.0 mph 8.0 mph 74% 0.00 in 287.00 W/m2
10:18 3.8 °F -2.6 °F 30.95 in Calm     74% 0.00 in 304.00 W/m2
10:37 4.7 °F -2.3 °F 30.95 in NNW 8.0 mph 8.0 mph 72% 0.00 in 338.00 W/m2
10:52 5.7 °F -1.7 °F 30.95 in NW 6.0 mph 6.0 mph 71% 0.00 in 371.00 W/m2
11:01 6.2 °F -1.2 °F 30.94 in NW 3.0 mph 3.0 mph 71% 0.00 in 385.00 W/m2
11:07 6.5 °F -1.2 °F 30.94 in NNW 6.0 mph 6.0 mph 70% 0.00 in 388.00 W/m2
11:17 7.3 °F -0.7 °F 30.94 in North 1.0 mph 6.0 mph 69% 0.00 in 406.00 W/m2
11:23 7.7 °F -0.3 °F 30.94 in North 6.0 mph 7.0 mph 69% 0.00 in 415.00 W/m2
11:40 8.9 °F 0.5 °F 30.93 in NNW 5.0 mph 6.0 mph 68% 0.00 in 431.00 W/m2
11:45 9.2 °F 0.5 °F 30.93 in NNW 3.0 mph 5.0 mph 67% 0.00 in 432.00 W/m2
11:53 9.7 °F 1.0 °F 30.93 in NW 3.0 mph 7.0 mph 67% 0.00 in 438.00 W/m2
12:13 10.5 °F 1.1 °F 30.92 in North 2.0 mph 3.0 mph 65% 0.00 in 450.00 W/m2
12:18 11.0 °F 1.9 °F 30.92 in West 4.0 mph 5.0 mph 66% 0.00 in 452.00 W/m2
12:25 11.2 °F 1.7 °F 30.92 in NNW 3.0 mph 5.0 mph 65% 0.00 in 455.00 W/m2
12:32 11.7 °F 2.2 °F 30.91 in NNW 4.0 mph 8.0 mph 65% 0.00 in 457.00 W/m2
12:37 11.6 °F 2.1 °F 30.91 in West 3.0 mph 6.0 mph 65% 0.00 in 455.00 W/m2
12:46 11.9 °F 2.4 °F 30.90 in Calm     65% 0.00 in 459.00 W/m2
12:51 12.6 °F 3.1 °F 30.90 in North 1.0 mph 2.0 mph 65% 0.00 in 457.00 W/m2
13:04 13.7 °F 4.1 °F 30.89 in North 1.0 mph 4.0 mph 65% 0.00 in 454.00 W/m2
13:10 14.2 °F 3.9 °F 30.89 in NW 2.0 mph 2.0 mph 63% 0.00 in 452.00 W/m2
13:25 14.4 °F 4.1 °F 30.88 in North 2.0 mph 3.0 mph 63% 0.00 in 441.00 W/m2
13:38 14.9 °F 4.9 °F 30.88 in WNW 4.0 mph 4.0 mph 64% 0.00 in 429.00 W/m2
14:05 16.4 °F 6.0 °F 30.87 in NNW 4.0 mph 5.0 mph 63% 0.00 in 399.00 W/m2
14:10 16.3 °F 5.9 °F 30.87 in WSW 5.0 mph 6.0 mph 63% 0.00 in 392.00 W/m2
14:17 16.3 °F 5.9 °F 30.87 in NW 4.0 mph 4.0 mph 63% 0.00 in 383.00 W/m2
14:29 17.3 °F 6.9 °F 30.87 in NW 3.0 mph 3.0 mph 63% 0.00 in 366.00 W/m2
14:35 17.7 °F 6.9 °F 30.87 in WNW 2.0 mph 4.0 mph 62% 0.00 in 357.00 W/m2
14:41 17.4 °F 6.3 °F 30.87 in West 3.0 mph 3.0 mph 61% 0.00 in 345.00 W/m2
14:55 17.1 °F 6.7 °F 30.87 in NNW 3.0 mph 3.0 mph 63% 0.00 in 320.00 W/m2
15:00 17.5 °F 6.7 °F 30.86 in Calm   3.0 mph 62% 0.00 in 309.00 W/m2
15:06 17.7 °F 6.9 °F 30.86 in NNW 3.0 mph 4.0 mph 62% 0.00 in 297.00 W/m2
15:16 17.6 °F 6.8 °F 30.86 in North 5.0 mph 5.0 mph 62% 0.00 in 274.00 W/m2
15:24 17.8 °F 7.3 °F 30.86 in North 4.0 mph 4.0 mph 63% 0.00 in 258.00 W/m2
15:31 18.0 °F 7.5 °F 30.86 in North 4.0 mph 4.0 mph 63% 0.00 in 239.00 W/m2
15:42 18.4 °F 7.6 °F 30.86 in Calm   7.0 mph 62% 0.00 in 207.00 W/m2
15:54 18.1 °F 7.3 °F 30.86 in NW 2.0 mph 5.0 mph 62% 0.00 in 178.00 W/m2
16:04 18.1 °F 7.6 °F 30.86 in West 2.0 mph 3.0 mph 63% 0.00 in 149.00 W/m2
16:09 18.4 °F 7.9 °F 30.86 in WNW 5.0 mph 5.0 mph 63% 0.00 in 135.00 W/m2
16:16 18.1 °F 7.3 °F 30.85 in NNE 2.0 mph 2.0 mph 62% 0.00 in 113.00 W/m2
16:21 18.0 °F 7.5 °F 30.85 in Calm     63% 0.00 in 98.00 W/m2
16:34 17.9 °F 7.4 °F 30.85 in WNW 2.0 mph 3.0 mph 63% 0.00 in 70.00 W/m2
17:05 16.3 °F 6.6 °F 30.84 in Calm     65% 0.00 in 14.00 W/m2
17:11 15.9 °F 6.6 °F 30.83 in WNW 1.0 mph 1.0 mph 66% 0.00 in 11.00 W/m2
17:16 15.6 °F 6.3 °F 30.83 in NW 2.0 mph 2.0 mph 66% 0.00 in 9.00 W/m2
17:25 15.1 °F 6.1 °F 30.83 in Calm     67% 0.00 in 0.00 W/m2
17:31 14.9 °F 5.9 °F 30.83 in Calm     67% 0.00 in 0.00 W/m2
17:52 14.2 °F 5.6 °F 30.83 in Calm     68% 0.00 in 0.00 W/m2
17:58 14.0 °F 5.4 °F 30.83 in Calm     68% 0.00 in 0.00 W/m2
18:05 13.8 °F 5.5 °F 30.83 in Calm     69% 0.00 in 0.00 W/m2
18:11 13.6 °F 5.3 °F 30.83 in Calm     69% 0.00 in 0.00 W/m2
18:29 13.0 °F 5.1 °F 30.83 in Calm     70% 0.00 in 0.00 W/m2
18:38 12.6 °F 5.0 °F 30.83 in Calm     71% 0.00 in 0.00 W/m2
SouthEast Lincoln Weather
Compliments of Weather Underground - 2.5 mb